Hlavní strana
METAR-TAF:

METAR-TAF

Letiště :

Eagle, Aljaška, Spojené státy americké

zeměpisná šířka: 64-46-35N, zeměpisná délka: 141-09-03W, výška: 268 m

Aktuální stav počasí

Zpráva byla vytvořena před 21 hodinami a 42 minutami, v 23:53 UTC
Východní vítr 4 kt
Teplota 22°C
Vlhkost vzduchu 46%
Tlak 1016 hPa
Viditelnost: 16.1 km
Jasno

METAR: PAEG 202353Z AUTO 10004KT 10SM CLR 22/10 A3000 RMK AO2 SLP158 T02220100 10233 20172 58007 TSNO

Čas: 13:35 (21:35 UTC)


TAF: chybějící

Stav a předpovědi počasí z více než 4 000 letišť (zprávy METAR a TAF).

Červené a žluté tečky na mapě představují dostupné meteorologické stanice.

Když kurzor umístíte na tečku, zobrazí se název stanice.

Pak kliknutím zobrazíte stav a předpověď počasí.

Chcete-li změnit mapu, kliknutím na zelené tlačítko se znaménkem +mapu přiblížíte, kliknutím na zelené tlačítko se znaménkem – mapu oddálíte a kliknutím na zelené šipky přejdete na sousední mapy.


METAR-TAF: